sensor_id;sensor_type;location;lat;lon;timestamp;P1;durP1;ratioP1;P2;durP2;ratioP2
9461;SDS011;4769;42.660;23.262;2024-02-21T00:00:38;6.63;;;5.70;;
9461;SDS011;4769;42.660;23.262;2024-02-21T00:03:05;6.03;;;5.43;;
9461;SDS011;4769;42.660;23.262;2024-02-21T00:05:31;7.27;;;5.40;;
9461;SDS011;4769;42.660;23.262;2024-02-21T00:07:58;6.07;;;5.47;;
9461;SDS011;4769;42.660;23.262;2024-02-21T00:10:24;6.23;;;5.30;;
9461;SDS011;4769;42.660;23.262;2024-02-21T00:12:50;5.40;;;4.90;;
9461;SDS011;4769;42.660;23.262;2024-02-21T00:15:16;6.97;;;5.60;;
9461;SDS011;4769;42.660;23.262;2024-02-21T00:17:43;5.67;;;4.90;;
9461;SDS011;4769;42.660;23.262;2024-02-21T00:20:09;5.87;;;5.27;;
9461;SDS011;4769;42.660;23.262;2024-02-21T00:22:35;5.87;;;5.27;;
9461;SDS011;4769;42.660;23.262;2024-02-21T00:25:01;5.70;;;4.93;;
9461;SDS011;4769;42.660;23.262;2024-02-21T00:27:26;4.90;;;4.50;;
9461;SDS011;4769;42.660;23.262;2024-02-21T00:29:51;5.80;;;5.20;;
9461;SDS011;4769;42.660;23.262;2024-02-21T00:32:17;5.30;;;4.80;;
9461;SDS011;4769;42.660;23.262;2024-02-21T00:34:43;5.80;;;5.20;;
9461;SDS011;4769;42.660;23.262;2024-02-21T00:37:08;6.33;;;5.43;;
9461;SDS011;4769;42.660;23.262;2024-02-21T00:39:34;6.73;;;5.40;;
9461;SDS011;4769;42.660;23.262;2024-02-21T00:42:00;6.17;;;5.60;;
9461;SDS011;4769;42.660;23.262;2024-02-21T00:44:26;6.93;;;5.50;;
9461;SDS011;4769;42.660;23.262;2024-02-21T00:46:51;5.53;;;5.03;;
9461;SDS011;4769;42.660;23.262;2024-02-21T00:49:18;5.93;;;5.33;;
9461;SDS011;4769;42.660;23.262;2024-02-21T00:51:43;5.77;;;5.17;;
9461;SDS011;4769;42.660;23.262;2024-02-21T00:54:09;6.53;;;5.77;;
9461;SDS011;4769;42.660;23.262;2024-02-21T00:56:34;6.00;;;5.40;;
9461;SDS011;4769;42.660;23.262;2024-02-21T00:59:00;6.07;;;5.37;;
9461;SDS011;4769;42.660;23.262;2024-02-21T01:01:25;6.60;;;5.90;;
9461;SDS011;4769;42.660;23.262;2024-02-21T01:03:51;6.80;;;5.77;;
9461;SDS011;4769;42.660;23.262;2024-02-21T01:06:18;7.00;;;5.93;;
9461;SDS011;4769;42.660;23.262;2024-02-21T01:08:47;6.83;;;6.00;;
9461;SDS011;4769;42.660;23.262;2024-02-21T01:11:13;5.87;;;5.37;;
9461;SDS011;4769;42.660;23.262;2024-02-21T01:13:39;5.77;;;5.07;;
9461;SDS011;4769;42.660;23.262;2024-02-21T01:16:05;6.03;;;5.43;;
9461;SDS011;4769;42.660;23.262;2024-02-21T01:18:32;5.93;;;5.33;;
9461;SDS011;4769;42.660;23.262;2024-02-21T01:20:58;6.53;;;5.77;;
9461;SDS011;4769;42.660;23.262;2024-02-21T01:23:24;7.50;;;6.53;;
9461;SDS011;4769;42.660;23.262;2024-02-21T01:25:49;10.23;;;7.10;;
9461;SDS011;4769;42.660;23.262;2024-02-21T01:28:15;11.13;;;6.90;;
9461;SDS011;4769;42.660;23.262;2024-02-21T01:30:40;6.17;;;5.57;;
9461;SDS011;4769;42.660;23.262;2024-02-21T01:33:06;7.80;;;6.67;;
9461;SDS011;4769;42.660;23.262;2024-02-21T01:35:34;8.20;;;7.10;;
9461;SDS011;4769;42.660;23.262;2024-02-21T01:37:59;8.47;;;7.40;;
9461;SDS011;4769;42.660;23.262;2024-02-21T01:40:25;9.73;;;7.73;;
9461;SDS011;4769;42.660;23.262;2024-02-21T01:42:50;9.10;;;7.50;;
9461;SDS011;4769;42.660;23.262;2024-02-21T01:45:18;8.80;;;7.53;;
9461;SDS011;4769;42.660;23.262;2024-02-21T01:47:44;10.03;;;8.43;;
9461;SDS011;4769;42.660;23.262;2024-02-21T01:50:09;10.60;;;8.87;;
9461;SDS011;4769;42.660;23.262;2024-02-21T01:52:37;11.10;;;9.00;;
9461;SDS011;4769;42.660;23.262;2024-02-21T01:55:03;11.53;;;9.33;;
9461;SDS011;4769;42.660;23.262;2024-02-21T01:57:29;12.93;;;10.23;;
9461;SDS011;4769;42.660;23.262;2024-02-21T01:59:55;12.47;;;9.97;;
9461;SDS011;4769;42.660;23.262;2024-02-21T02:02:20;11.97;;;10.37;;
9461;SDS011;4769;42.660;23.262;2024-02-21T02:04:46;12.40;;;10.03;;
9461;SDS011;4769;42.660;23.262;2024-02-21T02:07:12;13.23;;;10.30;;
9461;SDS011;4769;42.660;23.262;2024-02-21T02:09:37;12.23;;;10.17;;
9461;SDS011;4769;42.660;23.262;2024-02-21T02:12:03;15.33;;;10.60;;
9461;SDS011;4769;42.660;23.262;2024-02-21T02:14:30;11.87;;;10.47;;
9461;SDS011;4769;42.660;23.262;2024-02-21T02:16:55;14.20;;;11.53;;
9461;SDS011;4769;42.660;23.262;2024-02-21T02:19:20;14.77;;;11.60;;
9461;SDS011;4769;42.660;23.262;2024-02-21T02:21:46;13.37;;;11.10;;
9461;SDS011;4769;42.660;23.262;2024-02-21T02:24:24;13.93;;;11.20;;
9461;SDS011;4769;42.660;23.262;2024-02-21T02:26:53;12.87;;;10.97;;
9461;SDS011;4769;42.660;23.262;2024-02-21T02:29:18;12.93;;;11.13;;
9461;SDS011;4769;42.660;23.262;2024-02-21T02:31:44;13.37;;;10.93;;
9461;SDS011;4769;42.660;23.262;2024-02-21T02:34:09;13.30;;;10.90;;
9461;SDS011;4769;42.660;23.262;2024-02-21T02:36:35;14.53;;;11.70;;
9461;SDS011;4769;42.660;23.262;2024-02-21T02:39:00;15.60;;;11.90;;
9461;SDS011;4769;42.660;23.262;2024-02-21T02:41:26;14.43;;;11.53;;
9461;SDS011;4769;42.660;23.262;2024-02-21T02:43:51;14.83;;;12.13;;
9461;SDS011;4769;42.660;23.262;2024-02-21T02:46:17;15.47;;;12.57;;
9461;SDS011;4769;42.660;23.262;2024-02-21T02:48:42;13.00;;;11.03;;
9461;SDS011;4769;42.660;23.262;2024-02-21T02:51:08;13.63;;;11.37;;
9461;SDS011;4769;42.660;23.262;2024-02-21T02:53:33;12.90;;;10.67;;
9461;SDS011;4769;42.660;23.262;2024-02-21T02:55:59;14.00;;;11.33;;
9461;SDS011;4769;42.660;23.262;2024-02-21T02:58:24;12.83;;;10.90;;
9461;SDS011;4769;42.660;23.262;2024-02-21T03:00:49;14.43;;;11.43;;
9461;SDS011;4769;42.660;23.262;2024-02-21T03:03:15;12.67;;;10.83;;
9461;SDS011;4769;42.660;23.262;2024-02-21T03:05:40;13.10;;;11.07;;
9461;SDS011;4769;42.660;23.262;2024-02-21T03:08:06;13.03;;;10.77;;
9461;SDS011;4769;42.660;23.262;2024-02-21T03:10:35;15.63;;;12.03;;
9461;SDS011;4769;42.660;23.262;2024-02-21T03:13:00;13.80;;;11.80;;
9461;SDS011;4769;42.660;23.262;2024-02-21T03:15:26;14.87;;;10.90;;
9461;SDS011;4769;42.660;23.262;2024-02-21T03:17:51;14.17;;;10.87;;
9461;SDS011;4769;42.660;23.262;2024-02-21T03:20:17;13.40;;;11.20;;
9461;SDS011;4769;42.660;23.262;2024-02-21T03:22:43;12.77;;;10.70;;
9461;SDS011;4769;42.660;23.262;2024-02-21T03:25:09;16.17;;;12.40;;
9461;SDS011;4769;42.660;23.262;2024-02-21T03:27:35;14.17;;;11.43;;
9461;SDS011;4769;42.660;23.262;2024-02-21T03:30:01;14.70;;;12.17;;
9461;SDS011;4769;42.660;23.262;2024-02-21T03:32:26;15.07;;;13.10;;
9461;SDS011;4769;42.660;23.262;2024-02-21T03:34:53;16.43;;;13.20;;
9461;SDS011;4769;42.660;23.262;2024-02-21T03:37:19;13.50;;;12.07;;
9461;SDS011;4769;42.660;23.262;2024-02-21T03:39:45;14.80;;;12.20;;
9461;SDS011;4769;42.660;23.262;2024-02-21T03:42:12;15.40;;;12.57;;
9461;SDS011;4769;42.660;23.262;2024-02-21T03:44:38;15.63;;;12.87;;
9461;SDS011;4769;42.660;23.262;2024-02-21T03:47:04;17.90;;;13.63;;
9461;SDS011;4769;42.660;23.262;2024-02-21T03:49:29;16.67;;;12.67;;
9461;SDS011;4769;42.660;23.262;2024-02-21T03:51:55;16.67;;;13.27;;
9461;SDS011;4769;42.660;23.262;2024-02-21T03:54:24;16.53;;;14.37;;
9461;SDS011;4769;42.660;23.262;2024-02-21T03:56:50;15.97;;;12.93;;
9461;SDS011;4769;42.660;23.262;2024-02-21T03:59:15;17.13;;;13.40;;
9461;SDS011;4769;42.660;23.262;2024-02-21T04:01:41;18.23;;;13.87;;
9461;SDS011;4769;42.660;23.262;2024-02-21T04:04:07;16.13;;;13.40;;
9461;SDS011;4769;42.660;23.262;2024-02-21T04:06:32;16.20;;;13.43;;
9461;SDS011;4769;42.660;23.262;2024-02-21T04:08:58;18.37;;;14.53;;
9461;SDS011;4769;42.660;23.262;2024-02-21T04:11:23;17.97;;;14.33;;
9461;SDS011;4769;42.660;23.262;2024-02-21T04:13:49;17.77;;;13.90;;
9461;SDS011;4769;42.660;23.262;2024-02-21T04:16:16;19.17;;;14.77;;
9461;SDS011;4769;42.660;23.262;2024-02-21T04:18:42;16.43;;;13.63;;
9461;SDS011;4769;42.660;23.262;2024-02-21T04:21:08;15.93;;;13.30;;
9461;SDS011;4769;42.660;23.262;2024-02-21T04:23:34;14.53;;;12.47;;
9461;SDS011;4769;42.660;23.262;2024-02-21T04:26:00;16.57;;;13.43;;
9461;SDS011;4769;42.660;23.262;2024-02-21T04:28:25;15.70;;;14.00;;
9461;SDS011;4769;42.660;23.262;2024-02-21T04:30:52;15.67;;;12.97;;
9461;SDS011;4769;42.660;23.262;2024-02-21T04:33:17;15.40;;;13.27;;
9461;SDS011;4769;42.660;23.262;2024-02-21T04:35:43;17.43;;;13.20;;
9461;SDS011;4769;42.660;23.262;2024-02-21T04:38:09;15.67;;;12.60;;
9461;SDS011;4769;42.660;23.262;2024-02-21T04:40:35;14.93;;;12.57;;
9461;SDS011;4769;42.660;23.262;2024-02-21T04:43:00;15.50;;;13.17;;
9461;SDS011;4769;42.660;23.262;2024-02-21T04:45:26;15.70;;;12.50;;
9461;SDS011;4769;42.660;23.262;2024-02-21T04:47:51;15.70;;;12.83;;
9461;SDS011;4769;42.660;23.262;2024-02-21T04:50:17;17.57;;;13.70;;
9461;SDS011;4769;42.660;23.262;2024-02-21T04:52:43;18.97;;;14.33;;
9461;SDS011;4769;42.660;23.262;2024-02-21T04:55:08;17.67;;;13.77;;
9461;SDS011;4769;42.660;23.262;2024-02-21T04:57:34;16.20;;;13.30;;
9461;SDS011;4769;42.660;23.262;2024-02-21T04:59:59;19.13;;;14.33;;
9461;SDS011;4769;42.660;23.262;2024-02-21T05:02:24;15.10;;;11.70;;
9461;SDS011;4769;42.660;23.262;2024-02-21T05:04:52;15.13;;;12.67;;
9461;SDS011;4769;42.660;23.262;2024-02-21T05:07:18;18.87;;;13.57;;
9461;SDS011;4769;42.660;23.262;2024-02-21T05:09:44;14.73;;;12.27;;
9461;SDS011;4769;42.660;23.262;2024-02-21T05:12:10;15.87;;;13.23;;
9461;SDS011;4769;42.660;23.262;2024-02-21T05:14:36;14.43;;;12.10;;
9461;SDS011;4769;42.660;23.262;2024-02-21T05:17:02;16.53;;;12.50;;
9461;SDS011;4769;42.660;23.262;2024-02-21T05:19:31;18.23;;;13.63;;
9461;SDS011;4769;42.660;23.262;2024-02-21T05:21:56;17.03;;;13.67;;
9461;SDS011;4769;42.660;23.262;2024-02-21T05:24:23;14.97;;;13.37;;
9461;SDS011;4769;42.660;23.262;2024-02-21T05:26:49;15.37;;;13.20;;
9461;SDS011;4769;42.660;23.262;2024-02-21T05:29:18;18.00;;;13.33;;
9461;SDS011;4769;42.660;23.262;2024-02-21T05:34:18;16.30;;;13.13;;
9461;SDS011;4769;42.660;23.262;2024-02-21T05:36:44;16.03;;;13.40;;
9461;SDS011;4769;42.660;23.262;2024-02-21T05:39:09;17.07;;;13.90;;
9461;SDS011;4769;42.660;23.262;2024-02-21T05:41:35;20.87;;;14.57;;
9461;SDS011;4769;42.660;23.262;2024-02-21T05:44:01;18.30;;;14.13;;
9461;SDS011;4769;42.660;23.262;2024-02-21T05:46:26;15.00;;;12.30;;
9461;SDS011;4769;42.660;23.262;2024-02-21T05:48:52;16.83;;;12.13;;
9461;SDS011;4769;42.660;23.262;2024-02-21T05:51:18;14.20;;;11.17;;
9461;SDS011;4769;42.660;23.262;2024-02-21T05:53:43;16.90;;;12.30;;
9461;SDS011;4769;42.660;23.262;2024-02-21T05:56:12;15.83;;;11.80;;
9461;SDS011;4769;42.660;23.262;2024-02-21T05:58:38;16.23;;;12.43;;
9461;SDS011;4769;42.660;23.262;2024-02-21T06:01:04;13.93;;;12.30;;
9461;SDS011;4769;42.660;23.262;2024-02-21T06:03:31;14.83;;;12.43;;
9461;SDS011;4769;42.660;23.262;2024-02-21T06:05:57;19.57;;;12.00;;
9461;SDS011;4769;42.660;23.262;2024-02-21T06:08:24;16.63;;;11.47;;
9461;SDS011;4769;42.660;23.262;2024-02-21T06:10:49;15.43;;;12.27;;
9461;SDS011;4769;42.660;23.262;2024-02-21T06:13:19;15.37;;;11.83;;
9461;SDS011;4769;42.660;23.262;2024-02-21T06:15:46;15.57;;;12.50;;
9461;SDS011;4769;42.660;23.262;2024-02-21T06:18:11;15.43;;;12.43;;
9461;SDS011;4769;42.660;23.262;2024-02-21T06:20:37;17.87;;;13.17;;
9461;SDS011;4769;42.660;23.262;2024-02-21T06:23:05;18.60;;;13.20;;
9461;SDS011;4769;42.660;23.262;2024-02-21T06:25:33;16.43;;;12.87;;
9461;SDS011;4769;42.660;23.262;2024-02-21T06:27:58;15.20;;;12.40;;
9461;SDS011;4769;42.660;23.262;2024-02-21T06:30:24;17.07;;;14.07;;
9461;SDS011;4769;42.660;23.262;2024-02-21T06:32:50;18.87;;;14.60;;
9461;SDS011;4769;42.660;23.262;2024-02-21T06:35:16;17.43;;;13.97;;
9461;SDS011;4769;42.660;23.262;2024-02-21T06:37:42;17.30;;;12.90;;
9461;SDS011;4769;42.660;23.262;2024-02-21T06:40:07;18.13;;;14.03;;
9461;SDS011;4769;42.660;23.262;2024-02-21T06:42:33;18.57;;;14.20;;
9461;SDS011;4769;42.660;23.262;2024-02-21T06:44:58;17.83;;;14.03;;
9461;SDS011;4769;42.660;23.262;2024-02-21T06:47:24;16.30;;;13.20;;
9461;SDS011;4769;42.660;23.262;2024-02-21T06:49:51;18.43;;;13.80;;
9461;SDS011;4769;42.660;23.262;2024-02-21T06:52:17;18.67;;;14.37;;
9461;SDS011;4769;42.660;23.262;2024-02-21T06:54:45;18.53;;;13.57;;
9461;SDS011;4769;42.660;23.262;2024-02-21T06:57:13;16.77;;;13.50;;
9461;SDS011;4769;42.660;23.262;2024-02-21T06:59:40;16.27;;;13.30;;
9461;SDS011;4769;42.660;23.262;2024-02-21T07:02:06;15.80;;;12.93;;
9461;SDS011;4769;42.660;23.262;2024-02-21T07:04:31;17.27;;;13.60;;
9461;SDS011;4769;42.660;23.262;2024-02-21T07:06:57;17.23;;;13.57;;
9461;SDS011;4769;42.660;23.262;2024-02-21T07:09:22;20.47;;;13.93;;
9461;SDS011;4769;42.660;23.262;2024-02-21T07:11:48;16.53;;;13.70;;
9461;SDS011;4769;42.660;23.262;2024-02-21T07:14:14;16.90;;;14.07;;
9461;SDS011;4769;42.660;23.262;2024-02-21T07:16:40;17.77;;;14.07;;
9461;SDS011;4769;42.660;23.262;2024-02-21T07:19:05;19.50;;;14.30;;
9461;SDS011;4769;42.660;23.262;2024-02-21T07:21:36;18.60;;;14.03;;
9461;SDS011;4769;42.660;23.262;2024-02-21T07:34:27;17.57;;;14.23;;
9461;SDS011;4769;42.660;23.262;2024-02-21T07:55:04;18.53;;;14.47;;
9461;SDS011;4769;42.660;23.262;2024-02-21T07:57:30;18.77;;;14.40;;
9461;SDS011;4769;42.660;23.262;2024-02-21T07:59:56;17.23;;;14.27;;
9461;SDS011;4769;42.660;23.262;2024-02-21T08:10:13;18.27;;;15.30;;
9461;SDS011;4769;42.660;23.262;2024-02-21T08:17:50;20.37;;;15.10;;
9461;SDS011;4769;42.660;23.262;2024-02-21T08:20:15;18.80;;;14.30;;
9461;SDS011;4769;42.660;23.262;2024-02-21T08:22:41;18.50;;;14.90;;
9461;SDS011;4769;42.660;23.262;2024-02-21T08:25:06;21.03;;;14.77;;
9461;SDS011;4769;42.660;23.262;2024-02-21T08:27:31;15.37;;;12.90;;
9461;SDS011;4769;42.660;23.262;2024-02-21T08:30:02;16.77;;;13.93;;
9461;SDS011;4769;42.660;23.262;2024-02-21T08:32:28;17.20;;;14.10;;
9461;SDS011;4769;42.660;23.262;2024-02-21T08:34:54;14.87;;;12.47;;
9461;SDS011;4769;42.660;23.262;2024-02-21T08:37:21;13.53;;;11.43;;
9461;SDS011;4769;42.660;23.262;2024-02-21T08:39:47;15.93;;;11.70;;
9461;SDS011;4769;42.660;23.262;2024-02-21T08:42:12;12.70;;;10.87;;
9461;SDS011;4769;42.660;23.262;2024-02-21T08:44:39;13.37;;;11.97;;
9461;SDS011;4769;42.660;23.262;2024-02-21T08:47:04;14.40;;;11.67;;
9461;SDS011;4769;42.660;23.262;2024-02-21T08:49:31;15.17;;;11.10;;
9461;SDS011;4769;42.660;23.262;2024-02-21T08:51:57;13.33;;;11.20;;
9461;SDS011;4769;42.660;23.262;2024-02-21T08:54:22;13.33;;;11.33;;
9461;SDS011;4769;42.660;23.262;2024-02-21T08:56:51;16.60;;;11.90;;
9461;SDS011;4769;42.660;23.262;2024-02-21T08:59:17;13.10;;;11.70;;
9461;SDS011;4769;42.660;23.262;2024-02-21T09:01:42;14.80;;;12.20;;
9461;SDS011;4769;42.660;23.262;2024-02-21T09:04:08;13.57;;;11.83;;
9461;SDS011;4769;42.660;23.262;2024-02-21T09:06:34;13.73;;;12.20;;
9461;SDS011;4769;42.660;23.262;2024-02-21T09:09:02;14.17;;;11.80;;
9461;SDS011;4769;42.660;23.262;2024-02-21T09:11:27;12.73;;;11.30;;
9461;SDS011;4769;42.660;23.262;2024-02-21T09:13:53;15.43;;;11.97;;
9461;SDS011;4769;42.660;23.262;2024-02-21T09:16:18;17.43;;;14.30;;
9461;SDS011;4769;42.660;23.262;2024-02-21T09:18:44;15.57;;;12.77;;
9461;SDS011;4769;42.660;23.262;2024-02-21T09:26:20;18.83;;;16.80;;
9461;SDS011;4769;42.660;23.262;2024-02-21T10:20:31;12.32;;;9.43;;
9461;SDS011;4769;42.660;23.262;2024-02-21T10:23:03;10.07;;;9.07;;
9461;SDS011;4769;42.660;23.262;2024-02-21T10:25:38;10.73;;;8.67;;
9461;SDS011;4769;42.660;23.262;2024-02-21T10:28:06;9.90;;;8.90;;
9461;SDS011;4769;42.660;23.262;2024-02-21T10:30:32;8.93;;;7.82;;
9461;SDS011;4769;42.660;23.262;2024-02-21T10:32:57;9.55;;;8.55;;
9461;SDS011;4769;42.660;23.262;2024-02-21T10:35:26;10.77;;;8.82;;
9461;SDS011;4769;42.660;23.262;2024-02-21T10:37:53;10.80;;;8.55;;
9461;SDS011;4769;42.660;23.262;2024-02-21T10:40:30;8.40;;;7.60;;
9461;SDS011;4769;42.660;23.262;2024-02-21T10:42:58;9.73;;;7.75;;
9461;SDS011;4769;42.660;23.262;2024-02-21T10:45:33;11.07;;;9.05;;
9461;SDS011;4769;42.660;23.262;2024-02-21T10:48:22;10.65;;;8.75;;
9461;SDS011;4769;42.660;23.262;2024-02-21T10:58:40;8.52;;;7.72;;
9461;SDS011;4769;42.660;23.262;2024-02-21T11:01:07;7.90;;;6.97;;
9461;SDS011;4769;42.660;23.262;2024-02-21T11:03:33;7.70;;;6.90;;
9461;SDS011;4769;42.660;23.262;2024-02-21T11:06:00;6.68;;;6.03;;
9461;SDS011;4769;42.660;23.262;2024-02-21T11:08:26;7.30;;;6.32;;
9461;SDS011;4769;42.660;23.262;2024-02-21T11:10:56;7.40;;;6.70;;
9461;SDS011;4769;42.660;23.262;2024-02-21T11:13:29;10.00;;;6.90;;
9461;SDS011;4769;42.660;23.262;2024-02-21T11:16:06;6.93;;;6.07;;
9461;SDS011;4769;42.660;23.262;2024-02-21T11:18:34;6.95;;;6.25;;
9461;SDS011;4769;42.660;23.262;2024-02-21T11:20:59;7.18;;;6.25;;
9461;SDS011;4769;42.660;23.262;2024-02-21T11:23:25;8.82;;;6.25;;
9461;SDS011;4769;42.660;23.262;2024-02-21T11:25:51;7.95;;;6.13;;
9461;SDS011;4769;42.660;23.262;2024-02-21T11:28:17;7.45;;;5.63;;
9461;SDS011;4769;42.660;23.262;2024-02-21T11:30:50;8.98;;;6.47;;
9461;SDS011;4769;42.660;23.262;2024-02-21T11:33:16;11.00;;;8.07;;
9461;SDS011;4769;42.660;23.262;2024-02-21T11:35:41;6.72;;;5.72;;
9461;SDS011;4769;42.660;23.262;2024-02-21T11:38:10;6.35;;;4.97;;
9461;SDS011;4769;42.660;23.262;2024-02-21T11:40:40;6.03;;;5.43;;
9461;SDS011;4769;42.660;23.262;2024-02-21T11:43:06;7.88;;;6.95;;
9461;SDS011;4769;42.660;23.262;2024-02-21T11:45:32;8.10;;;7.10;;
9461;SDS011;4769;42.660;23.262;2024-02-21T11:47:58;7.00;;;6.30;;
9461;SDS011;4769;42.660;23.262;2024-02-21T11:50:29;7.17;;;6.37;;
9461;SDS011;4769;42.660;23.262;2024-02-21T11:52:55;7.07;;;6.37;;
9461;SDS011;4769;42.660;23.262;2024-02-21T11:55:21;7.67;;;6.87;;
9461;SDS011;4769;42.660;23.262;2024-02-21T11:57:47;8.70;;;6.23;;
9461;SDS011;4769;42.660;23.262;2024-02-21T12:00:17;6.68;;;5.30;;
9461;SDS011;4769;42.660;23.262;2024-02-21T12:03:05;6.70;;;5.63;;
9461;SDS011;4769;42.660;23.262;2024-02-21T12:05:41;6.63;;;5.93;;
9461;SDS011;4769;42.660;23.262;2024-02-21T12:08:07;8.57;;;6.70;;
9461;SDS011;4769;42.660;23.262;2024-02-21T12:10:32;11.93;;;7.73;;
9461;SDS011;4769;42.660;23.262;2024-02-21T12:13:07;7.73;;;6.80;;
9461;SDS011;4769;42.660;23.262;2024-02-21T12:15:38;8.70;;;7.00;;
9461;SDS011;4769;42.660;23.262;2024-02-21T12:18:05;8.17;;;6.97;;
9461;SDS011;4769;42.660;23.262;2024-02-21T12:20:30;7.93;;;7.07;;
9461;SDS011;4769;42.660;23.262;2024-02-21T12:22:59;8.03;;;7.00;;
9461;SDS011;4769;42.660;23.262;2024-02-21T12:25:25;8.40;;;7.27;;
9461;SDS011;4769;42.660;23.262;2024-02-21T12:27:52;10.07;;;6.83;;
9461;SDS011;4769;42.660;23.262;2024-02-21T12:30:17;7.70;;;6.77;;
9461;SDS011;4769;42.660;23.262;2024-02-21T12:32:44;8.73;;;7.53;;
9461;SDS011;4769;42.660;23.262;2024-02-21T12:35:10;6.97;;;5.73;;
9461;SDS011;4769;42.660;23.262;2024-02-21T12:37:35;7.83;;;6.67;;
9461;SDS011;4769;42.660;23.262;2024-02-21T12:40:03;10.13;;;7.23;;
9461;SDS011;4769;42.660;23.262;2024-02-21T12:42:33;10.50;;;7.20;;
9461;SDS011;4769;42.660;23.262;2024-02-21T12:44:59;12.17;;;9.40;;
9461;SDS011;4769;42.660;23.262;2024-02-21T12:47:25;9.30;;;7.80;;
9461;SDS011;4769;42.660;23.262;2024-02-21T12:49:52;8.35;;;7.45;;
9461;SDS011;4769;42.660;23.262;2024-02-21T12:52:18;7.95;;;6.72;;
9461;SDS011;4769;42.660;23.262;2024-02-21T12:54:44;7.97;;;6.47;;
9461;SDS011;4769;42.660;23.262;2024-02-21T12:57:10;7.30;;;6.30;;
9461;SDS011;4769;42.660;23.262;2024-02-21T12:59:36;6.90;;;6.20;;
9461;SDS011;4769;42.660;23.262;2024-02-21T13:02:01;6.67;;;6.07;;
9461;SDS011;4769;42.660;23.262;2024-02-21T13:04:27;5.83;;;5.33;;
9461;SDS011;4769;42.660;23.262;2024-02-21T13:12:28;7.15;;;5.88;;
9461;SDS011;4769;42.660;23.262;2024-02-21T13:14:55;6.25;;;5.65;;
9461;SDS011;4769;42.660;23.262;2024-02-21T13:17:20;9.17;;;6.83;;
9461;SDS011;4769;42.660;23.262;2024-02-21T13:19:47;8.87;;;7.50;;
9461;SDS011;4769;42.660;23.262;2024-02-21T13:22:13;8.25;;;7.45;;
9461;SDS011;4769;42.660;23.262;2024-02-21T13:24:38;11.57;;;9.67;;
9461;SDS011;4769;42.660;23.262;2024-02-21T13:27:04;8.63;;;7.43;;
9461;SDS011;4769;42.660;23.262;2024-02-21T13:29:29;10.73;;;8.40;;
9461;SDS011;4769;42.660;23.262;2024-02-21T13:31:55;10.97;;;8.73;;
9461;SDS011;4769;42.660;23.262;2024-02-21T13:34:20;12.07;;;9.70;;
9461;SDS011;4769;42.660;23.262;2024-02-21T13:36:46;8.83;;;6.87;;
9461;SDS011;4769;42.660;23.262;2024-02-21T13:39:11;8.33;;;7.23;;
9461;SDS011;4769;42.660;23.262;2024-02-21T13:41:40;12.47;;;7.87;;
9461;SDS011;4769;42.660;23.262;2024-02-21T13:44:07;11.57;;;6.07;;
9461;SDS011;4769;42.660;23.262;2024-02-21T13:46:33;7.20;;;6.30;;
9461;SDS011;4769;42.660;23.262;2024-02-21T13:49:02;6.23;;;5.60;;
9461;SDS011;4769;42.660;23.262;2024-02-21T13:51:33;7.03;;;6.00;;
9461;SDS011;4769;42.660;23.262;2024-02-21T13:54:02;8.13;;;6.97;;
9461;SDS011;4769;42.660;23.262;2024-02-21T13:56:34;12.53;;;9.33;;
9461;SDS011;4769;42.660;23.262;2024-02-21T13:59:00;9.90;;;7.90;;
9461;SDS011;4769;42.660;23.262;2024-02-21T14:01:25;9.33;;;7.97;;
9461;SDS011;4769;42.660;23.262;2024-02-21T14:03:53;8.47;;;7.40;;
9461;SDS011;4769;42.660;23.262;2024-02-21T14:06:18;11.73;;;9.63;;
9461;SDS011;4769;42.660;23.262;2024-02-21T14:08:44;10.00;;;8.33;;
9461;SDS011;4769;42.660;23.262;2024-02-21T14:11:10;15.40;;;10.83;;
9461;SDS011;4769;42.660;23.262;2024-02-21T14:13:35;36.23;;;26.93;;
9461;SDS011;4769;42.660;23.262;2024-02-21T14:16:01;16.03;;;10.77;;
9461;SDS011;4769;42.660;23.262;2024-02-21T14:18:27;21.57;;;13.27;;
9461;SDS011;4769;42.660;23.262;2024-02-21T14:20:52;14.20;;;9.70;;
9461;SDS011;4769;42.660;23.262;2024-02-21T14:23:18;16.37;;;10.80;;
9461;SDS011;4769;42.660;23.262;2024-02-21T14:25:43;13.77;;;9.63;;
9461;SDS011;4769;42.660;23.262;2024-02-21T14:28:09;16.77;;;9.47;;
9461;SDS011;4769;42.660;23.262;2024-02-21T14:30:35;20.67;;;11.13;;
9461;SDS011;4769;42.660;23.262;2024-02-21T14:33:01;16.33;;;9.70;;
9461;SDS011;4769;42.660;23.262;2024-02-21T14:35:26;10.17;;;8.30;;
9461;SDS011;4769;42.660;23.262;2024-02-21T14:37:52;21.10;;;12.13;;
9461;SDS011;4769;42.660;23.262;2024-02-21T14:40:22;17.80;;;11.53;;
9461;SDS011;4769;42.660;23.262;2024-02-21T14:42:48;14.57;;;9.90;;
9461;SDS011;4769;42.660;23.262;2024-02-21T14:45:16;13.43;;;9.60;;
9461;SDS011;4769;42.660;23.262;2024-02-21T14:47:41;15.97;;;10.37;;
9461;SDS011;4769;42.660;23.262;2024-02-21T14:50:07;14.83;;;10.07;;
9461;SDS011;4769;42.660;23.262;2024-02-21T14:52:33;12.10;;;8.40;;
9461;SDS011;4769;42.660;23.262;2024-02-21T14:54:58;15.63;;;10.03;;
9461;SDS011;4769;42.660;23.262;2024-02-21T14:57:24;12.20;;;9.00;;
9461;SDS011;4769;42.660;23.262;2024-02-21T14:59:50;14.90;;;8.47;;
9461;SDS011;4769;42.660;23.262;2024-02-21T15:02:21;17.93;;;10.17;;
9461;SDS011;4769;42.660;23.262;2024-02-21T15:04:50;11.07;;;9.20;;
9461;SDS011;4769;42.660;23.262;2024-02-21T15:07:19;10.37;;;8.00;;
9461;SDS011;4769;42.660;23.262;2024-02-21T15:09:45;11.23;;;7.73;;
9461;SDS011;4769;42.660;23.262;2024-02-21T15:12:11;16.50;;;9.77;;
9461;SDS011;4769;42.660;23.262;2024-02-21T15:14:37;15.67;;;10.47;;
9461;SDS011;4769;42.660;23.262;2024-02-21T15:17:03;10.27;;;7.80;;
9461;SDS011;4769;42.660;23.262;2024-02-21T15:19:29;18.37;;;12.17;;
9461;SDS011;4769;42.660;23.262;2024-02-21T15:21:54;14.07;;;9.43;;
9461;SDS011;4769;42.660;23.262;2024-02-21T15:24:19;14.03;;;9.60;;
9461;SDS011;4769;42.660;23.262;2024-02-21T15:26:45;11.77;;;8.17;;
9461;SDS011;4769;42.660;23.262;2024-02-21T15:29:10;10.57;;;8.40;;
9461;SDS011;4769;42.660;23.262;2024-02-21T15:31:36;12.67;;;9.27;;
9461;SDS011;4769;42.660;23.262;2024-02-21T15:34:02;13.67;;;8.20;;
9461;SDS011;4769;42.660;23.262;2024-02-21T15:36:28;8.60;;;7.50;;
9461;SDS011;4769;42.660;23.262;2024-02-21T15:38:53;19.73;;;9.93;;
9461;SDS011;4769;42.660;23.262;2024-02-21T15:41:19;10.27;;;7.97;;
9461;SDS011;4769;42.660;23.262;2024-02-21T15:43:46;8.83;;;7.87;;
9461;SDS011;4769;42.660;23.262;2024-02-21T15:46:12;17.43;;;10.87;;
9461;SDS011;4769;42.660;23.262;2024-02-21T15:48:38;15.40;;;11.10;;
9461;SDS011;4769;42.660;23.262;2024-02-21T15:51:03;24.80;;;16.97;;
9461;SDS011;4769;42.660;23.262;2024-02-21T15:53:29;24.37;;;15.67;;
9461;SDS011;4769;42.660;23.262;2024-02-21T15:55:55;17.63;;;13.90;;
9461;SDS011;4769;42.660;23.262;2024-02-21T15:58:20;16.70;;;13.13;;
9461;SDS011;4769;42.660;23.262;2024-02-21T16:00:48;14.77;;;10.63;;
9461;SDS011;4769;42.660;23.262;2024-02-21T16:03:14;11.03;;;9.83;;
9461;SDS011;4769;42.660;23.262;2024-02-21T16:05:40;18.73;;;9.57;;
9461;SDS011;4769;42.660;23.262;2024-02-21T16:08:06;14.23;;;9.40;;
9461;SDS011;4769;42.660;23.262;2024-02-21T16:10:32;12.60;;;9.73;;
9461;SDS011;4769;42.660;23.262;2024-02-21T16:12:58;20.27;;;10.10;;
9461;SDS011;4769;42.660;23.262;2024-02-21T16:15:23;23.50;;;10.10;;
9461;SDS011;4769;42.660;23.262;2024-02-21T16:17:49;13.50;;;10.37;;
9461;SDS011;4769;42.660;23.262;2024-02-21T16:20:14;14.73;;;11.00;;
9461;SDS011;4769;42.660;23.262;2024-02-21T16:22:41;15.03;;;11.47;;
9461;SDS011;4769;42.660;23.262;2024-02-21T16:25:07;14.83;;;10.70;;
9461;SDS011;4769;42.660;23.262;2024-02-21T16:27:33;13.77;;;9.77;;
9461;SDS011;4769;42.660;23.262;2024-02-21T16:29:59;13.77;;;11.20;;
9461;SDS011;4769;42.660;23.262;2024-02-21T16:32:24;13.47;;;11.13;;
9461;SDS011;4769;42.660;23.262;2024-02-21T16:34:52;17.43;;;13.97;;